DHX671 OMDB-OBBI
Flight info
| Callsign | DHX671 |
|---|---|
| Flight time | N/A |
| Altitude | 26000 |
| Route | NABIX P699 ORMID M556 ORDIG |
| Aircraft | B738/M-SDE2E3FGHIRWXY/LB1 |
Departure
| Time | 2026-04-24 13:16 |
|---|---|
| Airport | Dubai International Airport (OMDB) |
Arrival
| Time | N/A |
|---|---|
| Airport | Bahrain International Airport (OBBI) |
| Time | Latitude | Longitude | Altitude | Speed | Heading |
|---|---|---|---|---|---|
| 2026-04-24 13:00 | 25.24381 | 55.37285 | 43 ft | 0 kts | 212° |
| 2026-04-24 13:10 | 25.24385 | 55.37288 | 44 ft | 1 kts | 212° |
| 2026-04-24 13:11 | 25.24394 | 55.37293 | 44 ft | 1 kts | 211° |
| 2026-04-24 13:11 | 25.24402 | 55.37299 | 45 ft | 1 kts | 211° |
| 2026-04-24 13:11 | 25.24410 | 55.37305 | 46 ft | 1 kts | 240° |
| 2026-04-24 13:11 | 25.24410 | 55.37318 | 46 ft | 1 kts | 296° |
| 2026-04-24 13:12 | 25.24415 | 55.37310 | 46 ft | 4 kts | 303° |
| 2026-04-24 13:12 | 25.24418 | 55.37305 | 46 ft | 0 kts | 303° |
| 2026-04-24 13:13 | 25.24438 | 55.37298 | 47 ft | 8 kts | 8° |
| 2026-04-24 13:13 | 25.24463 | 55.37360 | 50 ft | 12 kts | 98° |
| 2026-04-24 13:13 | 25.24426 | 55.37522 | 47 ft | 31 kts | 102° |
| 2026-04-24 13:13 | 25.24385 | 55.37693 | 47 ft | 12 kts | 131° |
| 2026-04-24 13:14 | 25.24346 | 55.37814 | 52 ft | 17 kts | 67° |
| 2026-04-24 13:14 | 25.24474 | 55.37920 | 52 ft | 28 kts | 33° |
| 2026-04-24 13:14 | 25.24582 | 55.38011 | 52 ft | 12 kts | 33° |
| 2026-04-24 13:14 | 25.24690 | 55.38080 | 52 ft | 19 kts | 27° |
| 2026-04-24 13:15 | 25.24757 | 55.38094 | 52 ft | 4 kts | 333° |
| 2026-04-24 13:15 | 25.24778 | 55.38075 | 52 ft | 0 kts | 312° |
| 2026-04-24 13:16 | 25.24804 | 55.38037 | 52 ft | 30 kts | 303° |
| 2026-04-24 13:16 | 25.25094 | 55.37518 | 47 ft | 133 kts | 301° |
| 2026-04-24 13:16 | 25.25704 | 55.36382 | 416 ft | 197 kts | 301° |
| 2026-04-24 13:16 | 25.26419 | 55.34962 | 1431 ft | 233 kts | 300° |
| 2026-04-24 13:17 | 25.27288 | 55.33395 | 2859 ft | 253 kts | 302° |
| 2026-04-24 13:17 | 25.28219 | 55.31756 | 4095 ft | 260 kts | 300° |
| 2026-04-24 13:17 | 25.29012 | 55.29924 | 4165 ft | 271 kts | 284° |
| 2026-04-24 13:17 | 25.28971 | 55.27880 | 3997 ft | 263 kts | 251° |
| 2026-04-24 13:18 | 25.28201 | 55.26104 | 4013 ft | 245 kts | 242° |
| 2026-04-24 13:18 | 25.27433 | 55.24480 | 4364 ft | 233 kts | 244° |
| 2026-04-24 13:18 | 25.26794 | 55.22841 | 5066 ft | 241 kts | 255° |
| 2026-04-24 13:18 | 25.26509 | 55.20948 | 5835 ft | 263 kts | 262° |
| 2026-04-24 13:19 | 25.26326 | 55.18894 | 6568 ft | 272 kts | 263° |
| 2026-04-24 13:19 | 25.26155 | 55.16811 | 7307 ft | 279 kts | 263° |
| 2026-04-24 13:19 | 25.25979 | 55.14611 | 8159 ft | 293 kts | 263° |
| 2026-04-24 13:19 | 25.25803 | 55.12349 | 9092 ft | 302 kts | 263° |
| 2026-04-24 13:20 | 25.25630 | 55.10045 | 10024 ft | 308 kts | 263° |
| 2026-04-24 13:20 | 25.25456 | 55.07698 | 10965 ft | 311 kts | 263° |
| 2026-04-24 13:20 | 25.25276 | 55.05288 | 11929 ft | 315 kts | 263° |
| 2026-04-24 13:20 | 25.25088 | 55.02879 | 12884 ft | 320 kts | 263° |
| 2026-04-24 13:21 | 25.24899 | 55.00468 | 13834 ft | 321 kts | 263° |
| 2026-04-24 13:21 | 25.24702 | 54.98006 | 14806 ft | 326 kts | 263° |
| 2026-04-24 13:21 | 25.24492 | 54.95500 | 15788 ft | 329 kts | 263° |
| 2026-04-24 13:21 | 25.24273 | 54.92977 | 16773 ft | 332 kts | 263° |
| 2026-04-24 13:22 | 25.24044 | 54.90472 | 17752 ft | 335 kts | 263° |
| 2026-04-24 13:22 | 25.23809 | 54.87906 | 18756 ft | 337 kts | 263° |
| 2026-04-24 13:22 | 25.23584 | 54.85349 | 19755 ft | 339 kts | 263° |
| 2026-04-24 13:22 | 25.23365 | 54.82746 | 20778 ft | 340 kts | 263° |
| 2026-04-24 13:23 | 25.23163 | 54.80187 | 21791 ft | 339 kts | 263° |
| 2026-04-24 13:23 | 25.22967 | 54.77600 | 22829 ft | 337 kts | 263° |
| 2026-04-24 13:23 | 25.22779 | 54.75060 | 23867 ft | 334 kts | 264° |
| 2026-04-24 13:23 | 25.22585 | 54.72529 | 24883 ft | 329 kts | 264° |
| 2026-04-24 13:24 | 25.22387 | 54.70039 | 25581 ft | 333 kts | 264° |
| 2026-04-24 13:24 | 25.22170 | 54.67400 | 25777 ft | 350 kts | 263° |
| 2026-04-24 13:24 | 25.21943 | 54.64698 | 25801 ft | 362 kts | 264° |
| 2026-04-24 13:24 | 25.21700 | 54.61863 | 25798 ft | 369 kts | 263° |
| 2026-04-24 13:25 | 25.21455 | 54.59043 | 25793 ft | 370 kts | 263° |
| 2026-04-24 13:25 | 25.21211 | 54.56234 | 25795 ft | 369 kts | 263° |
| 2026-04-24 13:25 | 25.21052 | 54.53413 | 25790 ft | 370 kts | 271° |
| 2026-04-24 13:25 | 25.21437 | 54.50616 | 25804 ft | 371 kts | 281° |
| 2026-04-24 13:26 | 25.22127 | 54.47858 | 25797 ft | 373 kts | 284° |
| 2026-04-24 13:26 | 25.22869 | 54.45115 | 25796 ft | 371 kts | 284° |
| 2026-04-24 13:26 | 25.23597 | 54.42396 | 25797 ft | 371 kts | 284° |
| 2026-04-24 13:26 | 25.24327 | 54.39621 | 25798 ft | 372 kts | 283° |
| 2026-04-24 13:27 | 25.25029 | 54.36907 | 25796 ft | 370 kts | 283° |
| 2026-04-24 13:27 | 25.25735 | 54.34135 | 25797 ft | 370 kts | 283° |
| 2026-04-24 13:27 | 25.26425 | 54.31406 | 25798 ft | 372 kts | 283° |
| 2026-04-24 13:27 | 25.27124 | 54.28632 | 25796 ft | 371 kts | 283° |
| 2026-04-24 13:28 | 25.27808 | 54.25894 | 25796 ft | 370 kts | 283° |
| 2026-04-24 13:28 | 25.28485 | 54.23176 | 25798 ft | 371 kts | 282° |
| 2026-04-24 13:28 | 25.29178 | 54.20381 | 25802 ft | 378 kts | 283° |
| 2026-04-24 13:28 | 25.29878 | 54.17532 | 25800 ft | 390 kts | 282° |
| 2026-04-24 13:29 | 25.30592 | 54.14607 | 25796 ft | 401 kts | 282° |
| 2026-04-24 13:29 | 25.31307 | 54.11577 | 25796 ft | 412 kts | 281° |
| 2026-04-24 13:29 | 25.31976 | 54.08451 | 25796 ft | 422 kts | 281° |
| 2026-04-24 13:29 | 25.32631 | 54.05255 | 25796 ft | 432 kts | 280° |
| 2026-04-24 13:30 | 25.33300 | 54.01952 | 25795 ft | 440 kts | 280° |
| 2026-04-24 13:30 | 25.33968 | 53.98667 | 25796 ft | 443 kts | 280° |
| 2026-04-24 13:30 | 25.34650 | 53.95324 | 25796 ft | 440 kts | 281° |
| 2026-04-24 13:30 | 25.35331 | 53.92049 | 25796 ft | 442 kts | 281° |
| 2026-04-24 13:31 | 25.36018 | 53.88745 | 25796 ft | 442 kts | 281° |
| 2026-04-24 13:31 | 25.36709 | 53.85394 | 25796 ft | 442 kts | 281° |
| 2026-04-24 13:31 | 25.37396 | 53.82108 | 25796 ft | 441 kts | 281° |
| 2026-04-24 13:31 | 25.38091 | 53.78802 | 25797 ft | 442 kts | 281° |
| 2026-04-24 13:32 | 25.38794 | 53.75476 | 25796 ft | 440 kts | 281° |
| 2026-04-24 13:32 | 25.39492 | 53.72172 | 25797 ft | 443 kts | 281° |
| 2026-04-24 13:32 | 25.40185 | 53.68854 | 25796 ft | 443 kts | 281° |
| 2026-04-24 13:32 | 25.40875 | 53.65553 | 25797 ft | 442 kts | 281° |
| 2026-04-24 13:33 | 25.41565 | 53.62241 | 25797 ft | 440 kts | 281° |
| 2026-04-24 13:33 | 25.42259 | 53.58917 | 25797 ft | 442 kts | 281° |
| 2026-04-24 13:33 | 25.42946 | 53.55636 | 25797 ft | 441 kts | 281° |
| 2026-04-24 13:33 | 25.43640 | 53.52314 | 25797 ft | 442 kts | 281° |
| 2026-04-24 13:34 | 25.44328 | 53.48993 | 25796 ft | 442 kts | 281° |
| 2026-04-24 13:34 | 25.45017 | 53.45690 | 25796 ft | 441 kts | 281° |
| 2026-04-24 13:34 | 25.45705 | 53.42392 | 25797 ft | 442 kts | 281° |
| 2026-04-24 13:34 | 25.46389 | 53.39054 | 25796 ft | 442 kts | 281° |
| 2026-04-24 13:35 | 25.47065 | 53.35757 | 25797 ft | 441 kts | 281° |
| 2026-04-24 13:35 | 25.47751 | 53.32451 | 25797 ft | 441 kts | 280° |
| 2026-04-24 13:35 | 25.48446 | 53.29106 | 25797 ft | 442 kts | 280° |
| 2026-04-24 13:35 | 25.49128 | 53.25814 | 25796 ft | 441 kts | 280° |
| 2026-04-24 13:36 | 25.49807 | 53.22521 | 25797 ft | 441 kts | 280° |
| 2026-04-24 13:36 | 25.50495 | 53.19168 | 25797 ft | 442 kts | 280° |
| 2026-04-24 13:36 | 25.51168 | 53.15880 | 25796 ft | 441 kts | 280° |
| 2026-04-24 13:36 | 25.51846 | 53.12521 | 25797 ft | 442 kts | 280° |
| 2026-04-24 13:37 | 25.52518 | 53.09209 | 25796 ft | 442 kts | 280° |
| 2026-04-24 13:37 | 25.53198 | 53.05888 | 25796 ft | 440 kts | 280° |
| 2026-04-24 13:37 | 25.53874 | 53.02604 | 25797 ft | 442 kts | 280° |
| 2026-04-24 13:37 | 25.54559 | 52.99266 | 25797 ft | 442 kts | 280° |
| 2026-04-24 13:38 | 25.55226 | 52.95982 | 25797 ft | 444 kts | 280° |
| 2026-04-24 13:38 | 25.56035 | 52.92627 | 25796 ft | 456 kts | 286° |
| 2026-04-24 13:38 | 25.57281 | 52.89354 | 25799 ft | 460 kts | 292° |
| 2026-04-24 13:38 | 25.58711 | 52.86165 | 25796 ft | 462 kts | 294° |
| 2026-04-24 13:39 | 25.60106 | 52.82995 | 25793 ft | 463 kts | 289° |
| 2026-04-24 13:39 | 25.61097 | 52.79592 | 25799 ft | 462 kts | 283° |
| 2026-04-24 13:39 | 25.61871 | 52.76162 | 25797 ft | 463 kts | 281° |
| 2026-04-24 13:39 | 25.62648 | 52.72695 | 25796 ft | 464 kts | 282° |
| 2026-04-24 13:40 | 25.63472 | 52.69250 | 25797 ft | 465 kts | 283° |
| 2026-04-24 13:40 | 25.64376 | 52.65780 | 25797 ft | 466 kts | 284° |
| 2026-04-24 13:40 | 25.65336 | 52.62325 | 25797 ft | 467 kts | 285° |
| 2026-04-24 13:40 | 25.66326 | 52.58889 | 25797 ft | 468 kts | 285° |
| 2026-04-24 13:41 | 25.67325 | 52.55500 | 25797 ft | 469 kts | 285° |
| 2026-04-24 13:41 | 25.68359 | 52.52045 | 25797 ft | 470 kts | 286° |
| 2026-04-24 13:41 | 25.69395 | 52.48605 | 25796 ft | 470 kts | 286° |
| 2026-04-24 13:41 | 25.70430 | 52.45177 | 25796 ft | 470 kts | 286° |
| 2026-04-24 13:42 | 25.71477 | 52.41740 | 25796 ft | 471 kts | 286° |
| 2026-04-24 13:42 | 25.72537 | 52.38261 | 25796 ft | 471 kts | 286° |
| 2026-04-24 13:42 | 25.73580 | 52.34836 | 25797 ft | 471 kts | 286° |
| 2026-04-24 13:42 | 25.74620 | 52.31421 | 25796 ft | 472 kts | 286° |
| 2026-04-24 13:43 | 25.75678 | 52.27952 | 25797 ft | 472 kts | 286° |
| 2026-04-24 13:43 | 25.76727 | 52.24507 | 25796 ft | 472 kts | 286° |
| 2026-04-24 13:43 | 25.77791 | 52.21021 | 25796 ft | 473 kts | 286° |
| 2026-04-24 13:43 | 25.78834 | 52.17596 | 25797 ft | 473 kts | 286° |
| 2026-04-24 13:44 | 25.79884 | 52.14144 | 25797 ft | 473 kts | 286° |
| 2026-04-24 13:44 | 25.80937 | 52.10678 | 25796 ft | 473 kts | 286° |
| 2026-04-24 13:44 | 25.81982 | 52.07223 | 25797 ft | 474 kts | 286° |
| 2026-04-24 13:44 | 25.83040 | 52.03733 | 25796 ft | 474 kts | 286° |
| 2026-04-24 13:45 | 25.84099 | 52.00252 | 25797 ft | 474 kts | 286° |
| 2026-04-24 13:45 | 25.85156 | 51.96766 | 25796 ft | 474 kts | 286° |
| 2026-04-24 13:45 | 25.86198 | 51.93325 | 25796 ft | 474 kts | 286° |
| 2026-04-24 13:45 | 25.87256 | 51.89831 | 25797 ft | 474 kts | 286° |
| 2026-04-24 13:46 | 25.88300 | 51.86386 | 25796 ft | 474 kts | 286° |
| 2026-04-24 13:46 | 25.89352 | 51.82904 | 25796 ft | 474 kts | 286° |
| 2026-04-24 13:46 | 25.90408 | 51.79400 | 25796 ft | 474 kts | 286° |
| 2026-04-24 13:46 | 25.91436 | 51.75969 | 25797 ft | 474 kts | 286° |
| 2026-04-24 13:47 | 25.92482 | 51.72481 | 25797 ft | 474 kts | 286° |
| 2026-04-24 13:47 | 25.93526 | 51.69011 | 25797 ft | 474 kts | 286° |
| 2026-04-24 13:47 | 25.94580 | 51.65509 | 25797 ft | 474 kts | 286° |
| 2026-04-24 13:47 | 25.95624 | 51.62030 | 25687 ft | 477 kts | 286° |
| 2026-04-24 13:48 | 25.96675 | 51.58540 | 25693 ft | 476 kts | 286° |
| 2026-04-24 13:48 | 25.97726 | 51.55047 | 25798 ft | 474 kts | 286° |
| 2026-04-24 13:48 | 25.98763 | 51.51601 | 25903 ft | 471 kts | 286° |
| 2026-04-24 13:48 | 25.99743 | 51.48343 | 26009 ft | 469 kts | 286° |
| 2026-04-24 13:49 | 26.00586 | 51.45530 | 26094 ft | 468 kts | 286° |
| 2026-04-24 13:49 | 26.01611 | 51.42092 | 26204 ft | 466 kts | 286° |
| 2026-04-24 13:49 | 26.02618 | 51.38714 | 26309 ft | 465 kts | 286° |
| 2026-04-24 13:49 | 26.03640 | 51.35278 | 26424 ft | 463 kts | 286° |
| 2026-04-24 13:50 | 26.04649 | 51.31901 | 26530 ft | 462 kts | 286° |
| 2026-04-24 13:50 | 26.05660 | 51.28519 | 26645 ft | 461 kts | 285° |
| 2026-04-24 13:50 | 26.06680 | 51.25088 | 26567 ft | 465 kts | 285° |
| 2026-04-24 13:50 | 26.07695 | 51.21660 | 26079 ft | 476 kts | 285° |
| 2026-04-24 13:51 | 26.08745 | 51.18119 | 26009 ft | 477 kts | 286° |
| 2026-04-24 13:51 | 26.09641 | 51.15104 | 26099 ft | 474 kts | 285° |
| 2026-04-24 13:51 | 26.10675 | 51.11617 | 26204 ft | 472 kts | 285° |
| 2026-04-24 13:51 | 26.11694 | 51.08176 | 26299 ft | 465 kts | 285° |
| 2026-04-24 13:52 | 26.12683 | 51.04831 | 26148 ft | 445 kts | 285° |
| 2026-04-24 13:52 | 26.13627 | 51.01631 | 25708 ft | 430 kts | 285° |
| 2026-04-24 13:52 | 26.14287 | 50.98424 | 25329 ft | 413 kts | 276° |
| 2026-04-24 13:52 | 26.14619 | 50.95306 | 24817 ft | 404 kts | 273° |
| 2026-04-24 13:53 | 26.14869 | 50.92200 | 23912 ft | 404 kts | 273° |
| 2026-04-24 13:53 | 26.15102 | 50.89125 | 22880 ft | 406 kts | 272° |
| 2026-04-24 13:53 | 26.15347 | 50.85974 | 21836 ft | 406 kts | 273° |
| 2026-04-24 13:53 | 26.15582 | 50.82892 | 20825 ft | 406 kts | 273° |
| 2026-04-24 13:54 | 26.15814 | 50.79745 | 19801 ft | 406 kts | 272° |
| 2026-04-24 13:54 | 26.16028 | 50.76667 | 18806 ft | 404 kts | 272° |
| 2026-04-24 13:54 | 26.16235 | 50.73529 | 17796 ft | 403 kts | 272° |
| 2026-04-24 13:54 | 26.16434 | 50.70471 | 16817 ft | 401 kts | 272° |
| 2026-04-24 13:55 | 26.16633 | 50.67373 | 15826 ft | 398 kts | 272° |
| 2026-04-24 13:55 | 26.16829 | 50.64347 | 14860 ft | 396 kts | 272° |
| 2026-04-24 13:55 | 26.17037 | 50.61288 | 13884 ft | 394 kts | 272° |
| 2026-04-24 13:55 | 26.17247 | 50.58269 | 12921 ft | 391 kts | 272° |
| 2026-04-24 13:56 | 26.17456 | 50.55298 | 11972 ft | 389 kts | 272° |
| 2026-04-24 13:56 | 26.17672 | 50.52313 | 11017 ft | 386 kts | 272° |
| 2026-04-24 13:56 | 26.17883 | 50.49368 | 10073 ft | 383 kts | 272° |
| 2026-04-24 13:56 | 26.18097 | 50.46405 | 9119 ft | 380 kts | 272° |
| 2026-04-24 13:57 | 26.18283 | 50.43520 | 8186 ft | 377 kts | 272° |
| 2026-04-24 13:57 | 26.18444 | 50.40624 | 7245 ft | 374 kts | 272° |
| 2026-04-24 13:57 | 26.18590 | 50.37784 | 6318 ft | 371 kts | 272° |
| 2026-04-24 13:57 | 26.18727 | 50.34947 | 5386 ft | 368 kts | 271° |
| 2026-04-24 13:58 | 26.18850 | 50.32089 | 4442 ft | 365 kts | 271° |
| 2026-04-24 13:58 | 26.18949 | 50.29303 | 3517 ft | 363 kts | 271° |
| 2026-04-24 13:58 | 26.19031 | 50.26513 | 2693 ft | 357 kts | 271° |
| 2026-04-24 13:58 | 26.19102 | 50.23653 | 2401 ft | 383 kts | 271° |
| 2026-04-24 13:59 | 26.19133 | 50.20711 | 2298 ft | 372 kts | 270° |
| 2026-04-24 13:59 | 26.19154 | 50.17984 | 2291 ft | 335 kts | 271° |
| 2026-04-24 13:59 | 26.19206 | 50.15505 | 2294 ft | 302 kts | 272° |
| 2026-04-24 13:59 | 26.19257 | 50.13276 | 2295 ft | 275 kts | 272° |
| 2026-04-24 14:00 | 26.19305 | 50.11180 | 2297 ft | 266 kts | 271° |
| 2026-04-24 14:00 | 26.19352 | 50.09147 | 2296 ft | 261 kts | 272° |
| 2026-04-24 14:00 | 26.19392 | 50.07195 | 2294 ft | 243 kts | 272° |
| 2026-04-24 14:00 | 26.19433 | 50.05339 | 2295 ft | 234 kts | 271° |
| 2026-04-24 14:01 | 26.19469 | 50.03535 | 2297 ft | 231 kts | 272° |
| 2026-04-24 14:01 | 26.19496 | 50.01792 | 2296 ft | 223 kts | 272° |
| 2026-04-24 14:01 | 26.19525 | 50.00070 | 2297 ft | 221 kts | 272° |
| 2026-04-24 14:01 | 26.19557 | 49.98340 | 2296 ft | 218 kts | 272° |
| 2026-04-24 14:02 | 26.19597 | 49.96670 | 2294 ft | 212 kts | 276° |
| 2026-04-24 14:02 | 26.19987 | 49.95117 | 2298 ft | 208 kts | 299° |
| 2026-04-24 14:02 | 26.20872 | 49.93860 | 2300 ft | 202 kts | 313° |
| 2026-04-24 14:02 | 26.21818 | 49.92725 | 2296 ft | 195 kts | 312° |
| 2026-04-24 14:03 | 26.22733 | 49.91611 | 2300 ft | 196 kts | 312° |
| 2026-04-24 14:03 | 26.23669 | 49.90473 | 2301 ft | 197 kts | 313° |
| 2026-04-24 14:03 | 26.24584 | 49.89359 | 2298 ft | 195 kts | 313° |
| 2026-04-24 14:03 | 26.25497 | 49.88247 | 2295 ft | 187 kts | 313° |
| 2026-04-24 14:04 | 26.26365 | 49.87188 | 2299 ft | 184 kts | 313° |
| 2026-04-24 14:04 | 26.27244 | 49.86116 | 2304 ft | 187 kts | 313° |
| 2026-04-24 14:04 | 26.28138 | 49.85076 | 2296 ft | 185 kts | 319° |
| 2026-04-24 14:04 | 26.29238 | 49.84313 | 2302 ft | 188 kts | 336° |
| 2026-04-24 14:05 | 26.30481 | 49.83810 | 2299 ft | 186 kts | 341° |
| 2026-04-24 14:05 | 26.31718 | 49.83398 | 2290 ft | 178 kts | 343° |
| 2026-04-24 14:05 | 26.32870 | 49.83040 | 2294 ft | 167 kts | 343° |
| 2026-04-24 14:05 | 26.33991 | 49.82694 | 2224 ft | 170 kts | 343° |
| 2026-04-24 14:06 | 26.35143 | 49.82339 | 2013 ft | 171 kts | 343° |
| 2026-04-24 14:06 | 26.36283 | 49.81990 | 1794 ft | 166 kts | 343° |
| 2026-04-24 14:06 | 26.37406 | 49.81645 | 1594 ft | 167 kts | 343° |
| 2026-04-24 14:06 | 26.38522 | 49.81285 | 1361 ft | 166 kts | 342° |
| 2026-04-24 14:07 | 26.39637 | 49.80921 | 1086 ft | 166 kts | 342° |
| 2026-04-24 14:07 | 26.40736 | 49.80587 | 882 ft | 162 kts | 346° |
| 2026-04-24 14:07 | 26.41835 | 49.80309 | 692 ft | 157 kts | 345° |
| 2026-04-24 14:07 | 26.42897 | 49.79987 | 510 ft | 161 kts | 342° |
| 2026-04-24 14:08 | 26.43996 | 49.79626 | 379 ft | 162 kts | 342° |
| 2026-04-24 14:08 | 26.45066 | 49.79310 | 151 ft | 156 kts | 345° |
| 2026-04-24 14:08 | 26.46079 | 49.79002 | 62 ft | 136 kts | 343° |
| 2026-04-24 14:08 | 26.46835 | 49.78757 | 61 ft | 101 kts | 342° |
| 2026-04-24 14:09 | 26.47428 | 49.78566 | 57 ft | 66 kts | 346° |
| 2026-04-24 14:09 | 26.47792 | 49.78595 | 56 ft | 45 kts | 19° |
| 2026-04-24 14:09 | 26.47929 | 49.78635 | 56 ft | 3 kts | 24° |
| 2026-04-24 14:09 | 26.47968 | 49.78667 | 56 ft | 0 kts | 58° |
| 2026-04-24 14:11 | 26.47955 | 49.78730 | 57 ft | 19 kts | 136° |
| 2026-04-24 14:11 | 26.47762 | 49.78801 | 59 ft | 32 kts | 166° |
| 2026-04-24 14:11 | 26.47499 | 49.79027 | 60 ft | 23 kts | 78° |
| 2026-04-24 14:12 | 26.47384 | 49.79143 | 62 ft | 19 kts | 165° |
| 2026-04-24 14:12 | 26.47322 | 49.79169 | 62 ft | 0 kts | 157° |
| 2026-04-24 14:12 | 26.47261 | 49.79198 | 63 ft | 19 kts | 155° |
| 2026-04-24 14:12 | 26.47160 | 49.79252 | 66 ft | 5 kts | 155° |
| 2026-04-24 14:13 | 26.47133 | 49.79312 | 68 ft | 13 kts | 76° |
| 2026-04-24 14:13 | 26.47150 | 49.79356 | 69 ft | 0 kts | 67° |